Nearby METAR Reports

 

LGTS - THESALONIKI, GR
Distance from station: ΑΝΑ 85km
Ενημερώθηκε: 18/11/2019 13:50
Μερικώς νεφελώδης
Μερικώς νεφελώδης
 Ανεμος από varies
Ανεμος: varies 6 km/h
Θερμοκρασία: 19°C
Σημείο Δρόσου: 16°C
Υγρασία: 83%
Βαρόμετρο: 1019 hPa
Clouds: Μερικώς νεφελώδης
Visibility: 8 km
Cloud details: Few Clouds 244 m
Μερικώς νεφελώδης 762 m
2019/11/18 11:50 LGTS 181150Z VRB03KT 8000 FEW008 SCT025 19/16 Q1019 NOSIG
LGAV - ATHENS, GR
Distance from station: ΑΝΑ 546km
Ενημερώθηκε: 18/11/2019 13:50
Μερικώς νεφελώδης
Μερικώς νεφελώδης
 Ανεμος από ΝΝΔ
Ανεμος: ΝΝΔ 13 km/h
Θερμοκρασία: 22°C
Σημείο Δρόσου: 13°C
Υγρασία: 57%
Βαρόμετρο: 1018 hPa
Clouds: Μερικώς νεφελώδης
Visibility: 10 km
Cloud details: Μερικώς νεφελώδης 762 m
2019/11/18 11:50 LGAV 181150Z 20007KT 9999 SCT025 22/13 Q1018 NOSIG
 
LGKZ - KOZANI, GR
Distance from station: ΝΔ 130km
Ενημερώθηκε: 18/11/2019 13:50
Few Clouds
Few Clouds
 Ανεμος από Ν
Ανεμος: Ν 7 km/h
Θερμοκρασία: 17°C
Σημείο Δρόσου: 6°C
Υγρασία: 49%
Βαρόμετρο: 1019 hPa
Clouds: Few Clouds
Visibility: 10 km
Cloud details: Few Clouds 762 m
2019/11/18 11:50 LGKZ 181150Z 17004KT 9999 FEW025 17/06 Q1019
LGIO - IOANNINA, GR
Distance from station: ΝΔ 265km
Ενημερώθηκε: 18/11/2019 13:50
Μερικώς νεφελώδης
Μερικώς νεφελώδης
 Ανεμος από ΝΑ
Ανεμος: ΝΑ 7 km/h
Θερμοκρασία: 17°C
Σημείο Δρόσου: 11°C
Υγρασία: 68%
Βαρόμετρο: 1019 hPa
Clouds: Μερικώς νεφελώδης
Visibility: 10 km
Cloud details: Μερικώς νεφελώδης 762 m
2019/11/18 11:50 LGIO 181150Z 13004KT 9999 SCT025 17/11 Q1019
 
LGKV - KABALA, GR
Distance from station: ΒΑ 220km
Ενημερώθηκε: 18/11/2019 13:50
Thunderstorm, Σχεδόν νεφελώδης
Thunderstorm, Σχεδόν νεφελώδης
 Ανεμος από ΒΒΑ
Ανεμος: ΒΒΑ 17 km/h
Θερμοκρασία: 16°C
Σημείο Δρόσου: 14°C
Υγρασία: 88%
Βαρόμετρο: 1018 hPa
Περίληψη: Thunderstorm
Clouds: Σχεδόν νεφελώδης
Visibility: 9 km
Cloud details: Few Clouds 305 m
Few Clouds 549 m
Σχεδόν νεφελώδης 762 m
Σχεδόν νεφελώδης 2438 m
2019/11/18 11:50 LGKV 181150Z 03009KT 9000 TS FEW010 FEW018CB BKN025 BKN080 16/14 Q1018
LGAL - ALEXANDROUPOLI, GR
Distance from station: ΒΑ 367km
Ενημερώθηκε: 18/11/2019 13:50
Ασθενής βροχή, Μερικώς νεφελώδης
Ασθενής βροχή, Μερικώς νεφελώδης
 Ανεμος από ΑΒΑ
Ανεμος: ΑΒΑ 9 km/h
Θερμοκρασία: 17°C
Σημείο Δρόσου: 15°C
Υγρασία: 88%
Βαρόμετρο: 1019 hPa
Περίληψη: Ασθενής βροχή
Clouds: Μερικώς νεφελώδης
Visibility: 10 km
Cloud details: Few Clouds 610 m
Μερικώς νεφελώδης 914 m
2019/11/18 11:50 LGAL 181150Z 06005KT 9999 -RA FEW020 SCT030 17/15 Q1019
 
LGSA - CHANIA,CRETE, GR
Distance from station: ΑΝΑ 866km
Ενημερώθηκε: 18/11/2019 13:50
Μερικώς νεφελώδης
Μερικώς νεφελώδης
 Ανεμος από ΑΒΑ
Ανεμος: ΑΒΑ 9 km/h
Θερμοκρασία: 23°C
Σημείο Δρόσου: 16°C
Υγρασία: 65%
Βαρόμετρο: 1017 hPa
Clouds: Μερικώς νεφελώδης
Visibility: 10 km
Cloud details: Μερικώς νεφελώδης 762 m
2019/11/18 11:50 LGSA 181150Z 07005KT 9999 SCT025 23/16 Q1017
LGIR - HERAKLIO, CRETE, GR
Distance from station: ΑΝΑ 882km
Ενημερώθηκε: 18/11/2019 13:50
Μερικώς νεφελώδης
Μερικώς νεφελώδης
 Ανεμος από ΑΒΑ
Ανεμος: ΑΒΑ 7 km/h
Θερμοκρασία: 23°C
Σημείο Δρόσου: 18°C
Υγρασία: 74%
Βαρόμετρο: 1017 hPa
Clouds: Μερικώς νεφελώδης
Visibility: 10 km
Cloud details: Μερικώς νεφελώδης 762 m
Μερικώς νεφελώδης 2438 m
2019/11/18 11:50 LGIR 181150Z 06004KT 9999 SCT025 SCT080 23/18 Q1017 NOSIG
 
LGRP - RHODES, GR
Distance from station: ΑΝΑ 1.318km
Ενημερώθηκε: 18/11/2019 13:50
Few Clouds
Few Clouds
 Ανεμος από Α
Ανεμος: Α 15 km/h
Θερμοκρασία: 23°C
Σημείο Δρόσου: 14°C
Υγρασία: 57%
Βαρόμετρο: 1019 hPa
Clouds: Few Clouds
Visibility: 10 km
Cloud details: Few Clouds 549 m
2019/11/18 11:50 LGRP 181150Z 09008KT 060V130 9999 FEW018 23/14 Q1019 WS ALL RWY NOSIG
LGLR - LARISSA, GR
Distance from station: ΝΔ 182km
Ενημερώθηκε: 18/11/2019 13:50
Few Clouds
Few Clouds
 Ανεμος από calm
Ανεμος: Απνοια
Θερμοκρασία: 20°C
Σημείο Δρόσου: 13°C
Υγρασία: 64%
Βαρόμετρο: 1018 hPa
Clouds: Few Clouds
Visibility: 10 km
Cloud details: Few Clouds 914 m
2019/11/18 11:50 LGLR 181150Z 00000KT 9999 FEW030 20/13 Q1018 RMK FEW080 BLU